Time;durP1;ratioP1;P1;durP2;ratioP2;P2;SDS_P1;SDS_P2;PMS_P1;PMS_P2;Temp;Humidity;BMP_temperature;BMP_pressure;BME280_temperature;BME280_humidity;BME280_pressure;Samples;Min_cycle;Max_cycle;Signal;HPM_P1;HPM_P2
2021/12/26 00:00:16;;;;;;;41.00;24.13;;;7.60;96.00;;;;;;4878657;29;20041;-75
2021/12/26 00:02:42;;;;;;;37.80;23.90;;;7.60;95.90;;;;;;4878929;29;20025;-76
2021/12/26 00:05:08;;;;;;;36.13;24.03;;;7.70;95.60;;;;;;4879063;29;20089;-75
2021/12/26 00:07:35;;;;;;;37.63;23.73;;;7.70;95.30;;;;;;4878936;29;20037;-76
2021/12/26 00:10:02;;;;;;;38.97;24.30;;;7.70;95.10;;;;;;4879065;29;20515;-76
2021/12/26 00:12:27;;;;;;;35.20;23.93;;;7.70;95.10;;;;;;4880876;29;20037;-75
2021/12/26 00:14:53;;;;;;;46.60;31.10;;;7.70;95.10;;;;;;4882460;29;20489;-75
2021/12/26 00:17:19;;;;;;;50.63;32.77;;;7.60;95.50;;;;;;4882488;29;20492;-76
2021/12/26 00:19:44;;;;;;;44.33;28.50;;;7.60;95.80;;;;;;4882473;29;20550;-76
2021/12/26 00:22:10;;;;;;;40.90;27.23;;;7.60;95.90;;;;;;4882183;29;20397;-76
2021/12/26 00:24:35;;;;;;;39.73;24.40;;;7.60;96.00;;;;;;4882298;29;20029;-75
2021/12/26 00:27:02;;;;;;;36.47;23.27;;;7.60;96.00;;;;;;4882340;29;20056;-75
2021/12/26 00:29:27;;;;;;;42.80;25.13;;;7.60;95.70;;;;;;4896697;29;20081;-76
2021/12/26 00:31:53;;;;;;;36.90;22.07;;;7.60;95.60;;;;;;4882010;29;20028;-75
2021/12/26 00:34:19;;;;;;;36.10;22.60;;;7.70;95.40;;;;;;4882143;29;20039;-76
2021/12/26 00:36:44;;;;;;;33.60;22.57;;;7.70;95.20;;;;;;4882088;29;20025;-75
2021/12/26 00:39:11;;;;;;;38.40;25.63;;;7.70;95.50;;;;;;4882048;29;20033;-75
2021/12/26 00:41:39;;;;;;;45.73;26.80;;;7.60;95.90;;;;;;4881887;29;20457;-76
2021/12/26 00:44:06;;;;;;;42.17;24.57;;;7.50;96.00;;;;;;4881873;29;20017;-75
2021/12/26 00:46:32;;;;;;;42.13;25.87;;;7.50;96.00;;;;;;4881819;29;20025;-76
2021/12/26 00:48:58;;;;;;;39.57;25.20;;;7.50;95.90;;;;;;4881845;29;20054;-76
2021/12/26 00:51:24;;;;;;;40.37;25.60;;;7.60;96.10;;;;;;4881840;29;20076;-76
2021/12/26 00:53:50;;;;;;;35.40;23.47;;;7.50;96.00;;;;;;4881883;29;20037;-76
2021/12/26 00:56:17;;;;;;;37.00;22.70;;;7.50;95.90;;;;;;4880416;29;20536;-75
2021/12/26 00:58:43;;;;;;;38.00;24.37;;;7.50;95.70;;;;;;4881487;29;20474;-76
2021/12/26 01:01:08;;;;;;;35.10;22.87;;;7.60;95.80;;;;;;4881597;29;20057;-75
2021/12/26 01:03:35;;;;;;;37.03;23.93;;;7.50;95.90;;;;;;4881643;29;20032;-75
2021/12/26 01:06:01;;;;;;;40.27;25.00;;;7.50;95.80;;;;;;4881795;29;20459;-75
2021/12/26 01:08:30;;;;;;;45.47;28.20;;;7.60;95.70;;;;;;4881340;29;20027;-76
2021/12/26 01:11:05;;;;;;;49.57;30.23;;;7.60;95.50;;;;;;4881532;29;20053;-76
2021/12/26 01:13:34;;;;;;;47.90;30.83;;;7.70;95.40;;;;;;4881299;29;20496;-75
2021/12/26 01:16:04;;;;;;;48.87;31.97;;;7.60;95.30;;;;;;4881627;29;20033;-76
2021/12/26 01:18:35;;;;;;;46.00;31.23;;;7.60;95.30;;;;;;4881299;29;20063;-76
2021/12/26 01:21:16;;;;;;;47.53;31.03;;;7.60;95.90;;;;;;4881233;29;20533;-76
2021/12/26 01:23:42;;;;;;;47.33;30.23;;;7.60;96.10;;;;;;4881003;29;20056;-75
2021/12/26 01:26:08;;;;;;;44.30;29.90;;;7.60;96.20;;;;;;4881180;29;20666;-75
2021/12/26 01:28:34;;;;;;;44.77;29.57;;;7.60;96.20;;;;;;4881072;29;20100;-76
2021/12/26 01:31:00;;;;;;;40.77;28.63;;;7.60;96.20;;;;;;4881303;29;20092;-76
2021/12/26 01:33:27;;;;;;;41.40;28.73;;;7.60;96.10;;;;;;4881021;29;20032;-76
2021/12/26 01:35:52;;;;;;;44.07;28.40;;;7.70;95.90;;;;;;4880769;29;20467;-76
2021/12/26 01:38:19;;;;;;;45.23;30.30;;;7.70;95.70;;;;;;4880993;29;20104;-76
2021/12/26 01:40:50;;;;;;;45.50;28.87;;;7.70;95.70;;;;;;4880935;29;20037;-75
2021/12/26 01:43:18;;;;;;;41.07;27.50;;;7.60;95.80;;;;;;4880872;29;20483;-75
2021/12/26 01:45:44;;;;;;;42.13;27.83;;;7.70;96.10;;;;;;4880740;29;20059;-76
2021/12/26 01:48:10;;;;;;;37.30;26.83;;;7.70;95.90;;;;;;4880864;29;20474;-76
2021/12/26 01:50:37;;;;;;;38.30;26.63;;;7.70;96.10;;;;;;4880974;29;20045;-76
2021/12/26 01:53:04;;;;;;;34.10;24.97;;;7.70;96.20;;;;;;4880840;29;20546;-76
2021/12/26 01:58:07;;;;;;;35.43;24.87;;;7.70;96.10;;;;;;4879075;29;20033;-76
2021/12/26 02:00:33;;;;;;;36.50;26.77;;;7.70;96.00;;;;;;4877666;29;20072;-77
2021/12/26 02:02:59;;;;;;;36.60;27.50;;;7.70;96.30;;;;;;4877603;29;20104;-76
2021/12/26 02:05:24;;;;;;;43.50;30.00;;;7.70;96.60;;;;;;4879164;29;20491;-76
2021/12/26 02:07:50;;;;;;;41.90;28.37;;;7.70;96.60;;;;;;4878998;29;20463;-75
2021/12/26 02:10:16;;;;;;;34.80;26.43;;;7.70;96.70;;;;;;4880424;29;20359;-76
2021/12/26 02:12:42;;;;;;;38.77;27.13;;;7.70;96.70;;;;;;4879768;29;20025;-76
2021/12/26 02:15:09;;;;;;;36.37;27.67;;;7.70;96.70;;;;;;4880420;29;20478;-76
2021/12/26 02:17:34;;;;;;;38.60;27.97;;;7.70;96.50;;;;;;4880357;29;20483;-76
2021/12/26 02:20:21;;;;;;;37.90;26.87;;;7.70;96.50;;;;;;4880095;29;20048;-76
2021/12/26 02:22:53;;;;;;;35.17;23.93;;;7.70;96.40;;;;;;4880068;29;20028;-76
2021/12/26 02:27:51;;;;;;;37.70;24.47;;;7.70;96.50;;;;;;4879915;29;20494;-76
2021/12/26 02:30:17;;;;;;;34.67;23.10;;;7.70;96.60;;;;;;4880144;29;20369;-76
2021/12/26 02:32:49;;;;;;;32.27;22.23;;;7.70;96.70;;;;;;4879978;29;20505;-76
2021/12/26 02:35:16;;;;;;;31.67;19.83;;;7.70;96.60;;;;;;4879041;29;20046;-76
2021/12/26 02:37:42;;;;;;;26.33;18.07;;;7.70;96.70;;;;;;4879798;29;20032;-76
2021/12/26 02:40:09;;;;;;;24.50;17.10;;;7.70;96.60;;;;;;4879720;29;20037;-76
2021/12/26 02:42:34;;;;;;;22.73;16.90;;;7.70;96.60;;;;;;4879254;29;20040;-76
2021/12/26 02:45:00;;;;;;;24.73;16.13;;;7.70;96.50;;;;;;4879631;29;20033;-76
2021/12/26 02:47:34;;;;;;;21.27;15.27;;;7.70;96.50;;;;;;4879641;29;20482;-75
2021/12/26 02:50:03;;;;;;;22.47;14.47;;;7.70;96.50;;;;;;4879672;29;20033;-75
2021/12/26 02:52:29;;;;;;;20.77;14.10;;;7.70;96.50;;;;;;4879570;29;20036;-76
2021/12/26 02:54:59;;;;;;;22.90;13.37;;;7.70;96.50;;;;;;4879647;29;20052;-76
2021/12/26 02:57:24;;;;;;;20.03;13.30;;;7.60;96.50;;;;;;4879686;29;20033;-76
2021/12/26 02:59:50;;;;;;;20.73;13.80;;;7.60;96.70;;;;;;4879599;29;20394;-76
2021/12/26 03:02:16;;;;;;;24.67;13.80;;;7.50;96.80;;;;;;4879499;29;20084;-75
2021/12/26 03:04:41;;;;;;;20.03;13.33;;;7.50;96.80;;;;;;4879678;29;20024;-75
2021/12/26 03:07:07;;;;;;;18.17;13.30;;;7.50;96.90;;;;;;4879596;29;20037;-75
2021/12/26 03:09:43;;;;;;;20.03;12.93;;;7.50;97.00;;;;;;4879304;29;20100;-75
2021/12/26 03:12:09;;;;;;;19.73;13.27;;;7.50;97.00;;;;;;4879181;29;20025;-76
2021/12/26 03:14:36;;;;;;;22.13;14.20;;;7.50;97.00;;;;;;4878358;29;20061;-75
2021/12/26 03:17:02;;;;;;;19.40;12.80;;;7.50;97.00;;;;;;4879349;29;20112;-76
2021/12/26 03:19:32;;;;;;;22.60;14.10;;;7.50;96.80;;;;;;4879366;29;20167;-75
2021/12/26 03:21:57;;;;;;;23.90;14.87;;;7.50;96.80;;;;;;4879427;29;20093;-76
2021/12/26 03:24:23;;;;;;;23.47;14.57;;;7.40;96.90;;;;;;4878067;29;20028;-76
2021/12/26 03:26:49;;;;;;;26.50;13.97;;;7.50;97.30;;;;;;4879103;29;20037;-76
2021/12/26 03:29:15;;;;;;;20.10;14.07;;;7.50;97.00;;;;;;4879537;29;20067;-75
2021/12/26 03:31:41;;;;;;;22.83;13.73;;;7.50;97.00;;;;;;4879404;29;20025;-76
2021/12/26 03:34:08;;;;;;;19.63;13.27;;;7.50;96.80;;;;;;4879244;29;20578;-75
2021/12/26 03:36:34;;;;;;;24.60;15.50;;;7.50;96.80;;;;;;4879275;29;20035;-75
2021/12/26 03:39:00;;;;;;;22.80;14.33;;;7.60;96.70;;;;;;4879275;29;20538;-76
2021/12/26 03:41:25;;;;;;;20.33;12.83;;;7.60;96.60;;;;;;4879171;29;20040;-76
2021/12/26 03:43:51;;;;;;;19.47;12.80;;;7.50;96.50;;;;;;4879124;29;20036;-76
2021/12/26 03:46:17;;;;;;;20.53;13.10;;;7.40;96.70;;;;;;4879594;29;20032;-76
2021/12/26 03:48:43;;;;;;;20.90;13.07;;;7.30;96.90;;;;;;4883097;29;20025;-75
2021/12/26 03:51:09;;;;;;;23.43;14.50;;;7.30;97.10;;;;;;4882828;29;20040;-76
2021/12/26 03:53:34;;;;;;;27.07;15.17;;;7.20;97.30;;;;;;4882749;29;20085;-76
2021/12/26 03:56:01;;;;;;;23.23;16.13;;;7.20;97.50;;;;;;4882774;29;20086;-76
2021/12/26 03:58:27;;;;;;;24.77;16.47;;;7.20;97.80;;;;;;4882829;29;20033;-76
2021/12/26 04:00:54;;;;;;;31.50;18.73;;;7.10;98.00;;;;;;4882358;29;20139;-76
2021/12/26 04:03:20;;;;;;;34.30;21.23;;;7.10;98.20;;;;;;4882525;29;20024;-76
2021/12/26 04:05:46;;;;;;;32.93;20.77;;;7.10;98.40;;;;;;4882624;29;20021;-76
2021/12/26 04:08:11;;;;;;;37.77;23.93;;;7.20;98.40;;;;;;4882444;29;20032;-75
2021/12/26 04:10:37;;;;;;;71.57;30.73;;;7.20;98.50;;;;;;4882072;29;20052;-75
2021/12/26 04:13:04;;;;;;;54.03;31.20;;;7.20;98.60;;;;;;4882389;29;20049;-76
2021/12/26 04:15:30;;;;;;;61.33;34.63;;;7.10;98.70;;;;;;4882497;29;20033;-76
2021/12/26 04:17:57;;;;;;;67.07;38.63;;;7.10;98.80;;;;;;4882507;29;20374;-75
2021/12/26 04:20:24;;;;;;;79.57;44.27;;;7.10;98.80;;;;;;4882282;29;20085;-76
2021/12/26 04:22:51;;;;;;;78.90;46.83;;;7.00;98.80;;;;;;4881903;29;20025;-76
2021/12/26 04:25:20;;;;;;;80.83;46.17;;;7.00;99.10;;;;;;4882269;29;20048;-76
2021/12/26 04:27:46;;;;;;;97.10;48.57;;;7.00;98.90;;;;;;4882549;29;20101;-76
2021/12/26 04:30:13;;;;;;;90.13;49.67;;;6.90;98.70;;;;;;4882353;29;20061;-76
2021/12/26 04:32:40;;;;;;;78.77;50.07;;;6.80;98.90;;;;;;4882015;29;20068;-76
2021/12/26 04:35:06;;;;;;;77.33;51.33;;;6.80;99.00;;;;;;4881979;29;20398;-76
2021/12/26 04:37:34;;;;;;;80.83;50.67;;;6.80;99.00;;;;;;4881961;29;20450;-75
2021/12/26 04:40:00;;;;;;;88.97;53.10;;;6.80;99.00;;;;;;4882033;29;20040;-76
2021/12/26 04:42:26;;;;;;;86.70;51.13;;;6.80;98.90;;;;;;4881945;29;20049;-76
2021/12/26 04:44:53;;;;;;;97.67;51.87;;;6.80;98.90;;;;;;4881707;29;20077;-76
2021/12/26 04:47:19;;;;;;;80.63;52.00;;;6.70;98.80;;;;;;4881990;29;20486;-76
2021/12/26 04:49:45;;;;;;;85.13;54.33;;;6.70;98.80;;;;;;4880653;29;20032;-75
2021/12/26 04:52:10;;;;;;;76.83;51.77;;;6.70;98.90;;;;;;4881868;29;20061;-76
2021/12/26 04:54:36;;;;;;;75.30;51.13;;;6.70;99.00;;;;;;4880442;29;20045;-75
2021/12/26 04:57:02;;;;;;;71.97;49.20;;;6.80;99.00;;;;;;4881297;29;20113;-76
2021/12/26 04:59:27;;;;;;;79.30;50.00;;;6.80;99.00;;;;;;4881464;29;20107;-76
2021/12/26 05:01:54;;;;;;;85.37;50.87;;;6.80;98.80;;;;;;4881651;29;20033;-76
2021/12/26 05:04:20;;;;;;;72.00;49.20;;;6.80;98.70;;;;;;4881435;29;20033;-76
2021/12/26 05:06:48;;;;;;;78.30;50.83;;;6.70;98.70;;;;;;4881419;29;20025;-74
2021/12/26 05:09:14;;;;;;;76.60;52.53;;;6.80;98.70;;;;;;4881658;29;20084;-76
2021/12/26 05:11:40;;;;;;;84.90;50.93;;;6.80;98.90;;;;;;4881545;29;20054;-75
2021/12/26 05:14:06;;;;;;;68.47;46.20;;;6.80;98.90;;;;;;4881345;29;20031;-76
2021/12/26 05:16:32;;;;;;;69.90;47.10;;;6.90;98.90;;;;;;4881496;29;20137;-76
2021/12/26 05:18:58;;;;;;;67.70;45.93;;;7.00;98.70;;;;;;4881281;29;20025;-75
2021/12/26 05:21:24;;;;;;;74.40;49.00;;;7.00;98.60;;;;;;4881145;29;20491;-75
2021/12/26 05:23:49;;;;;;;75.57;47.90;;;7.00;98.50;;;;;;4881351;29;20061;-76
2021/12/26 05:26:15;;;;;;;66.73;46.17;;;7.00;98.50;;;;;;4880065;29;20440;-75
2021/12/26 05:28:41;;;;;;;67.50;45.50;;;7.10;98.40;;;;;;4881109;29;20116;-75
2021/12/26 05:31:07;;;;;;;62.63;43.87;;;7.10;98.30;;;;;;4881113;29;20033;-75
2021/12/26 05:33:33;;;;;;;71.67;46.80;;;7.10;98.10;;;;;;4881203;29;20021;-76
2021/12/26 05:35:59;;;;;;;70.23;48.00;;;7.00;97.90;;;;;;4880948;29;20033;-76
2021/12/26 05:38:27;;;;;;;71.13;48.03;;;7.00;98.00;;;;;;4880927;29;20032;-75
2021/12/26 05:40:53;;;;;;;72.60;47.50;;;7.00;98.00;;;;;;4880674;29;20037;-75
2021/12/26 05:43:19;;;;;;;72.90;46.13;;;7.00;98.10;;;;;;4879665;29;20021;-75
2021/12/26 05:45:45;;;;;;;67.83;44.00;;;7.00;98.20;;;;;;4881016;29;20031;-76
2021/12/26 05:48:10;;;;;;;70.17;42.30;;;7.10;98.30;;;;;;4880959;29;20031;-76
2021/12/26 05:50:36;;;;;;;66.47;42.17;;;7.10;98.00;;;;;;4880741;29;20033;-76
2021/12/26 05:53:02;;;;;;;71.20;42.73;;;7.20;97.80;;;;;;4880604;29;20021;-76
2021/12/26 05:55:27;;;;;;;62.73;40.80;;;7.20;97.70;;;;;;4880435;29;20049;-75
2021/12/26 05:57:53;;;;;;;64.63;42.03;;;7.20;97.60;;;;;;4879458;29;20025;-76
2021/12/26 06:00:20;;;;;;;69.03;42.40;;;7.30;97.40;;;;;;4880629;29;20033;-76
2021/12/26 06:02:49;;;;;;;63.50;43.03;;;7.30;97.40;;;;;;4880726;29;20025;-75
2021/12/26 06:05:15;;;;;;;63.60;40.73;;;7.30;97.30;;;;;;4880164;29;20057;-76
2021/12/26 06:07:40;;;;;;;57.70;39.67;;;7.30;97.30;;;;;;4880229;29;20033;-76
2021/12/26 06:10:07;;;;;;;53.23;37.73;;;7.40;97.20;;;;;;4879573;29;20036;-75
2021/12/26 06:12:33;;;;;;;57.30;38.37;;;7.40;97.00;;;;;;4880240;29;20019;-77
2021/12/26 06:14:59;;;;;;;57.37;37.93;;;7.40;96.80;;;;;;4880357;29;20103;-76
2021/12/26 06:17:25;;;;;;;58.40;38.27;;;7.40;96.90;;;;;;4880200;29;20134;-76
2021/12/26 06:19:51;;;;;;;64.80;40.33;;;7.50;96.50;;;;;;4879883;29;20029;-76
2021/12/26 06:22:16;;;;;;;69.93;43.37;;;7.50;96.40;;;;;;4878775;29;20458;-74
2021/12/26 06:24:42;;;;;;;70.20;43.70;;;7.40;96.50;;;;;;4880152;29;20092;-75
2021/12/26 06:27:09;;;;;;;70.67;42.60;;;7.40;96.60;;;;;;4880341;29;20032;-74
2021/12/26 06:29:35;;;;;;;75.23;45.33;;;7.40;96.60;;;;;;4880021;29;20088;-74
2021/12/26 06:32:01;;;;;;;75.37;47.60;;;7.40;96.70;;;;;;4879622;29;20108;-75
2021/12/26 06:34:26;;;;;;;72.03;45.57;;;7.40;96.90;;;;;;4880068;29;20109;-74
2021/12/26 06:36:52;;;;;;;70.60;45.50;;;7.30;96.90;;;;;;4880030;29;20033;-75
2021/12/26 06:39:18;;;;;;;73.40;44.53;;;7.30;96.90;;;;;;4879843;29;20032;-74
2021/12/26 06:41:44;;;;;;;75.23;47.30;;;7.30;97.00;;;;;;4879881;29;20033;-74
2021/12/26 06:44:10;;;;;;;77.40;45.60;;;7.30;97.20;;;;;;4879913;29;20112;-74
2021/12/26 06:46:37;;;;;;;70.80;44.20;;;7.30;97.30;;;;;;4879701;29;20025;-75
2021/12/26 06:49:04;;;;;;;71.27;44.73;;;7.30;97.40;;;;;;4879879;29;20038;-76
2021/12/26 06:51:30;;;;;;;71.70;46.20;;;7.40;97.50;;;;;;4879883;29;20057;-74
2021/12/26 06:53:56;;;;;;;66.57;43.60;;;7.30;97.50;;;;;;4879464;29;20057;-75
2021/12/26 06:56:22;;;;;;;65.20;41.57;;;7.40;97.60;;;;;;4879756;29;20498;-74
2021/12/26 06:58:47;;;;;;;67.50;41.07;;;7.40;97.60;;;;;;4879526;29;20112;-74
2021/12/26 07:01:13;;;;;;;57.43;36.23;;;7.40;97.60;;;;;;4879858;29;20076;-75
2021/12/26 07:03:39;;;;;;;58.77;32.60;;;7.40;97.90;;;;;;4879711;29;20037;-75
2021/12/26 07:06:04;;;;;;;57.47;32.57;;;7.50;97.40;;;;;;4879336;29;20033;-74
2021/12/26 07:08:30;;;;;;;50.27;33.23;;;7.50;97.20;;;;;;4879644;29;20104;-75
2021/12/26 07:10:57;;;;;;;55.73;33.87;;;7.50;97.50;;;;;;4879390;29;20092;-75
2021/12/26 07:13:22;;;;;;;52.73;32.97;;;7.50;97.60;;;;;;4893540;29;20508;-74
2021/12/26 07:15:48;;;;;;;54.10;31.93;;;7.60;97.60;;;;;;4879657;29;20037;-74
2021/12/26 07:18:14;;;;;;;44.37;28.47;;;7.50;97.50;;;;;;4879591;29;20033;-74
2021/12/26 07:20:40;;;;;;;44.70;29.27;;;7.60;97.50;;;;;;4879336;29;20049;-75
2021/12/26 07:23:06;;;;;;;47.03;29.53;;;7.60;97.40;;;;;;4879188;29;20112;-75
2021/12/26 07:25:32;;;;;;;50.60;29.80;;;7.60;97.30;;;;;;4879344;29;20029;-75
2021/12/26 07:27:59;;;;;;;44.80;29.53;;;7.70;97.30;;;;;;4879200;29;20021;-74
2021/12/26 07:30:25;;;;;;;45.93;30.40;;;7.70;97.10;;;;;;4880191;29;20409;-74
2021/12/26 07:32:52;;;;;;;48.47;30.83;;;7.70;96.80;;;;;;4879541;29;20112;-75
2021/12/26 07:35:17;;;;;;;50.17;31.77;;;7.80;96.50;;;;;;4880062;29;20474;-75
2021/12/26 07:37:43;;;;;;;43.83;30.23;;;7.80;96.40;;;;;;4879562;29;20037;-75
2021/12/26 07:40:10;;;;;;;44.50;29.40;;;7.80;96.30;;;;;;4879104;29;20033;-74
2021/12/26 07:42:35;;;;;;;40.53;26.63;;;7.80;96.10;;;;;;4879114;29;20032;-75
2021/12/26 07:45:01;;;;;;;33.27;22.80;;;7.80;96.00;;;;;;4879152;29;20021;-74
2021/12/26 07:47:27;;;;;;;32.93;22.00;;;7.90;95.90;;;;;;4877932;29;20510;-70
2021/12/26 07:49:52;;;;;;;35.43;22.40;;;7.90;95.70;;;;;;4876213;29;20101;-72
2021/12/26 07:52:23;;;;;;;32.87;22.40;;;7.90;95.60;;;;;;4876484;29;20036;-75
2021/12/26 07:54:49;;;;;;;34.27;22.33;;;7.90;95.60;;;;;;4875900;29;20406;-74
2021/12/26 07:57:15;;;;;;;37.37;24.07;;;7.90;95.90;;;;;;4876343;29;20111;-74
2021/12/26 07:59:41;;;;;;;36.73;22.30;;;8.00;95.70;;;;;;4878632;29;20040;-74
2021/12/26 08:02:07;;;;;;;42.63;23.93;;;8.00;95.70;;;;;;4878810;29;20070;-76
2021/12/26 08:04:33;;;;;;;35.53;22.53;;;8.00;95.90;;;;;;4879089;29;20033;-74
2021/12/26 08:07:00;;;;;;;30.57;20.77;;;7.90;96.20;;;;;;4879097;29;20029;-74
2021/12/26 08:09:26;;;;;;;32.30;19.90;;;8.00;96.20;;;;;;4879208;29;20059;-75
2021/12/26 08:11:52;;;;;;;31.97;21.33;;;8.10;96.50;;;;;;4878706;29;20045;-75
2021/12/26 08:14:18;;;;;;;32.93;20.73;;;8.00;96.70;;;;;;4878918;29;20037;-74
2021/12/26 08:16:44;;;;;;;36.60;22.90;;;8.10;96.80;;;;;;4878741;29;20026;-75
2021/12/26 08:19:09;;;;;;;33.00;20.30;;;8.10;96.70;;;;;;4878580;29;20033;-75
2021/12/26 08:21:35;;;;;;;31.00;20.63;;;8.10;96.60;;;;;;4878625;29;20073;-74
2021/12/26 08:24:01;;;;;;;27.60;18.20;;;8.10;96.40;;;;;;4878728;29;20025;-74
2021/12/26 08:26:27;;;;;;;25.10;16.37;;;8.10;96.60;;;;;;4879024;29;20041;-74
2021/12/26 08:28:54;;;;;;;33.07;19.37;;;8.10;96.60;;;;;;4878755;29;20032;-74
2021/12/26 08:31:22;;;;;;;23.43;15.47;;;8.10;96.40;;;;;;4878167;29;20036;-74
2021/12/26 08:33:47;;;;;;;20.90;15.00;;;8.10;96.50;;;;;;4880764;29;20029;-74
2021/12/26 08:36:13;;;;;;;22.67;14.90;;;8.10;96.50;;;;;;4882091;29;20039;-75
2021/12/26 08:38:40;;;;;;;15.13;10.57;;;8.20;96.50;;;;;;4881986;29;20496;-75
2021/12/26 08:41:06;;;;;;;11.10;8.40;;;8.20;96.20;;;;;;4881835;29;20455;-74
2021/12/26 08:43:32;;;;;;;17.63;10.80;;;8.20;95.80;;;;;;4881933;29;20031;-75
2021/12/26 08:45:58;;;;;;;15.17;10.03;;;8.20;95.60;;;;;;4881704;29;20107;-74
2021/12/26 08:48:24;;;;;;;9.20;7.60;;;8.20;95.60;;;;;;4881657;29;20033;-74
2021/12/26 08:50:55;;;;;;;15.00;8.53;;;8.30;95.50;;;;;;4881513;29;20467;-73
2021/12/26 08:53:25;;;;;;;12.70;7.60;;;8.20;95.40;;;;;;4881294;29;20459;-74
2021/12/26 08:55:51;;;;;;;12.60;7.33;;;8.20;95.40;;;;;;4880958;29;20056;-75
2021/12/26 08:58:17;;;;;;;10.50;6.60;;;8.20;95.40;;;;;;4881541;29;20029;-75
2021/12/26 09:00:43;;;;;;;13.27;7.83;;;8.20;95.20;;;;;;4881367;29;20041;-72
2021/12/26 09:03:08;;;;;;;9.90;6.60;;;8.30;95.20;;;;;;4881044;29;20040;-74
2021/12/26 09:05:34;;;;;;;13.90;8.57;;;8.30;95.00;;;;;;4880951;29;20033;-74
2021/12/26 09:08:02;;;;;;;10.77;6.83;;;8.30;95.00;;;;;;4881021;29;20037;-75
2021/12/26 09:10:28;;;;;;;12.53;7.83;;;8.30;95.00;;;;;;4881390;29;20036;-73
2021/12/26 09:12:54;;;;;;;10.37;6.33;;;8.30;95.10;;;;;;4881240;29;20497;-75
2021/12/26 09:15:21;;;;;;;8.10;5.90;;;8.30;94.90;;;;;;4881080;29;20037;-75
2021/12/26 09:17:47;;;;;;;14.10;8.97;;;8.40;94.60;;;;;;4881106;29;20037;-74
2021/12/26 09:20:13;;;;;;;9.83;6.10;;;8.30;94.90;;;;;;4880957;29;20509;-74
2021/12/26 09:22:40;;;;;;;27.13;8.97;;;8.40;94.80;;;;;;4880866;29;20031;-73
2021/12/26 09:25:06;;;;;;;9.47;7.30;;;8.40;95.30;;;;;;4880652;29;20053;-73
2021/12/26 09:27:32;;;;;;;20.40;12.67;;;8.40;95.10;;;;;;4880806;29;20036;-74
2021/12/26 09:29:58;;;;;;;9.30;6.43;;;8.30;95.00;;;;;;4880514;29;20025;-76
2021/12/26 09:32:24;;;;;;;7.43;4.73;;;8.40;94.90;;;;;;4880680;29;20021;-73
2021/12/26 09:34:49;;;;;;;6.20;4.53;;;8.50;94.60;;;;;;4877538;29;20116;-74
2021/12/26 09:37:15;;;;;;;6.57;3.63;;;8.50;94.30;;;;;;4877958;29;20232;-74
2021/12/26 09:39:41;;;;;;;3.93;2.50;;;8.50;94.00;;;;;;4879854;29;20052;-74
2021/12/26 09:42:07;;;;;;;3.30;2.40;;;8.50;93.80;;;;;;4880869;29;20402;-75
2021/12/26 09:44:33;;;;;;;4.90;2.00;;;8.50;93.30;;;;;;4880718;29;20107;-74
2021/12/26 09:46:59;;;;;;;2.97;1.73;;;8.60;93.30;;;;;;4880614;29;20036;-74
2021/12/26 09:49:25;;;;;;;3.00;1.57;;;8.60;92.90;;;;;;4880500;29;20029;-72
2021/12/26 09:51:52;;;;;;;3.83;1.70;;;8.50;92.40;;;;;;4880785;29;20033;-73
2021/12/26 09:54:18;;;;;;;21.30;8.63;;;8.50;92.50;;;;;;4880269;29;20061;-73
2021/12/26 09:56:44;;;;;;;5.47;1.47;;;8.40;92.50;;;;;;4882600;29;20483;-74
2021/12/26 09:59:16;;;;;;;1.97;1.40;;;8.50;92.60;;;;;;4887167;29;20044;-74
2021/12/26 10:01:46;;;;;;;2.70;2.22;;;8.40;93.10;;;;;;4893219;29;20100;-75
2021/12/26 10:04:16;;;;;;;2.77;2.03;;;8.50;92.90;;;;;;4896837;29;20478;-74
2021/12/26 10:06:42;;;;;;;2.63;1.77;;;8.50;93.00;;;;;;4898791;29;20063;-71
2021/12/26 10:09:09;;;;;;;7.60;4.47;;;8.50;92.60;;;;;;4899085;29;20056;-77
2021/12/26 10:11:39;;;;;;;4.20;2.70;;;8.50;92.40;;;;;;4898903;29;20059;-79
2021/12/26 10:14:11;;;;;;;4.60;3.07;;;8.60;92.10;;;;;;4898770;29;20024;-78
2021/12/26 10:16:43;;;;;;;6.90;3.90;;;8.60;92.60;;;;;;4898955;29;20118;-79
2021/12/26 10:19:10;;;;;;;4.22;3.22;;;8.60;93.20;;;;;;4898752;29;20035;-79
2021/12/26 10:21:44;;;;;;;5.63;2.60;;;8.60;93.10;;;;;;4898410;29;20138;-78
2021/12/26 10:24:19;;;;;;;6.97;2.90;;;8.60;92.80;;;;;;4898786;29;20112;-79
2021/12/26 10:27:11;;;;;;;4.00;2.40;;;8.60;92.80;;;;;;4898899;29;20413;-79
2021/12/26 10:29:47;;;;;;;3.60;2.40;;;8.70;93.20;;;;;;4898577;29;20155;-82
2021/12/26 10:32:22;;;;;;;8.70;2.30;;;8.70;92.90;;;;;;4898652;29;20028;-80
2021/12/26 10:34:54;;;;;;;3.43;2.57;;;8.70;93.10;;;;;;4898284;29;20076;-74
2021/12/26 10:37:23;;;;;;;3.65;2.40;;;8.70;93.00;;;;;;4898038;29;20552;-75
2021/12/26 10:39:55;;;;;;;4.37;2.33;;;8.80;93.30;;;;;;4898570;29;20024;-76
2021/12/26 10:42:29;;;;;;;4.07;2.77;;;8.80;93.00;;;;;;4898458;29;20028;-76
2021/12/26 10:44:58;;;;;;;4.07;3.03;;;8.80;93.20;;;;;;4896578;29;20056;-76
2021/12/26 10:47:26;;;;;;;7.23;4.73;;;8.80;93.00;;;;;;4890375;29;20093;-75
2021/12/26 10:50:00;;;;;;;7.90;5.80;;;8.80;93.10;;;;;;4893933;29;20025;-75
2021/12/26 10:52:27;;;;;;;14.80;10.97;;;8.80;93.00;;;;;;4878798;29;20081;-76
2021/12/26 10:55:08;;;;;;;6.33;5.67;;;8.90;92.80;;;;;;4878495;29;20117;-76
2021/12/26 10:57:40;;;;;;;4.67;3.50;;;9.00;92.50;;;;;;4879184;29;20056;-76
2021/12/26 11:00:11;;;;;;;8.03;4.23;;;9.00;92.30;;;;;;4879425;29;20033;-76
2021/12/26 11:02:40;;;;;;;3.93;3.27;;;9.00;92.80;;;;;;4879303;29;20490;-76
2021/12/26 11:05:06;;;;;;;3.17;2.40;;;9.00;93.80;;;;;;4879586;29;20120;-77
2021/12/26 11:07:47;;;;;;;3.70;2.83;;;8.90;94.00;;;;;;4879409;29;20060;-75
2021/12/26 11:10:23;;;;;;;3.50;2.60;;;9.00;93.90;;;;;;4879130;29;20037;-74
2021/12/26 11:12:55;;;;;;;3.77;2.60;;;9.00;93.40;;;;;;4879408;29;20052;-76
2021/12/26 11:15:23;;;;;;;2.85;2.25;;;9.10;92.80;;;;;;4879172;29;20025;-76
2021/12/26 11:17:59;;;;;;;4.70;3.07;;;9.10;92.30;;;;;;4878828;29;20032;-76
2021/12/26 11:20:31;;;;;;;5.43;3.50;;;9.20;92.20;;;;;;4883791;29;20041;-75
2021/12/26 11:22:59;;;;;;;6.07;4.40;;;9.20;92.40;;;;;;4879377;29;20033;-76
2021/12/26 11:25:26;;;;;;;5.37;3.87;;;9.20;92.20;;;;;;4876896;29;20041;-79
2021/12/26 11:27:52;;;;;;;5.60;4.50;;;9.20;92.30;;;;;;4878104;29;20397;-82
2021/12/26 11:30:19;;;;;;;6.10;4.03;;;9.20;91.90;;;;;;4879474;29;20057;-80
2021/12/26 11:32:45;;;;;;;4.70;3.67;;;9.20;92.10;;;;;;4879161;29;20434;-76
2021/12/26 11:35:13;;;;;;;5.37;3.70;;;9.20;92.10;;;;;;4879051;29;20035;-75
2021/12/26 11:37:40;;;;;;;5.77;4.07;;;9.20;92.00;;;;;;4877851;29;20040;-76
2021/12/26 11:40:10;;;;;;;31.80;19.70;;;9.20;92.00;;;;;;4876214;29;20203;-76
2021/12/26 11:42:56;;;;;;;43.23;27.47;;;9.30;92.50;;;;;;4878998;29;20056;-75
2021/12/26 11:46:06;;;;;;;25.77;16.57;;;9.30;92.40;;;;;;4878861;29;20045;-75
2021/12/26 11:48:55;;;;;;;8.53;6.00;;;9.30;91.80;;;;;;4893077;29;20037;-75
2021/12/26 11:51:29;;;;;;;6.80;5.40;;;9.40;91.70;;;;;;4878685;29;20394;-75
2021/12/26 11:54:16;;;;;;;5.97;4.73;;;9.40;92.00;;;;;;4878033;29;20064;-75
2021/12/26 11:56:52;;;;;;;4.43;3.20;;;9.40;91.90;;;;;;4879057;29;20041;-75
2021/12/26 11:59:38;;;;;;;3.90;2.87;;;9.40;91.70;;;;;;4876247;29;20455;-77
2021/12/26 12:02:04;;;;;;;2.70;2.00;;;9.40;91.60;;;;;;4876086;29;20045;-77
2021/12/26 12:04:30;;;;;;;1.60;1.03;;;9.40;91.30;;;;;;4877760;29;20033;-78
2021/12/26 12:07:04;;;;;;;2.10;1.30;;;9.40;90.80;;;;;;4878836;29;20104;-79
2021/12/26 12:09:39;;;;;;;1.77;1.30;;;9.50;90.40;;;;;;4882214;29;20107;-78
2021/12/26 12:12:07;;;;;;;3.07;1.67;;;9.50;90.20;;;;;;4882194;29;20017;-75
2021/12/26 12:14:58;;;;;;;1.67;1.27;;;9.50;89.80;;;;;;4882162;29;20389;-75
2021/12/26 12:17:31;;;;;;;2.13;1.23;;;9.50;89.80;;;;;;4882179;29;20040;-75
2021/12/26 12:20:16;;;;;;;;;;;9.50;90.00;;;;;;4882466;29;20116;-76
2021/12/26 12:23:03;;;;;;;1.97;1.37;;;9.50;89.70;;;;;;4881136;29;19908;-75
2021/12/26 12:25:38;;;;;;;5.00;1.70;;;9.50;89.70;;;;;;4879452;29;20477;-76
2021/12/26 12:28:15;;;;;;;3.50;1.90;;;9.40;89.30;;;;;;4879216;29;20117;-76
2021/12/26 12:30:50;;;;;;;4.80;2.53;;;9.40;89.90;;;;;;4881269;29;20033;-75
2021/12/26 12:33:21;;;;;;;2.20;1.50;;;9.40;90.10;;;;;;4881747;29;20386;-75
2021/12/26 12:35:57;;;;;;;1.90;1.33;;;9.40;90.20;;;;;;4881821;29;20112;-75
2021/12/26 12:38:25;;;;;;;13.70;5.50;;;9.50;90.20;;;;;;4881398;29;20112;-74
2021/12/26 12:40:51;;;;;;;6.37;3.60;;;9.50;90.20;;;;;;4881554;29;20041;-75
2021/12/26 12:43:20;;;;;;;6.97;2.60;;;9.50;90.50;;;;;;4881378;29;20033;-75
2021/12/26 12:45:55;;;;;;;2.40;1.60;;;9.50;88.70;;;;;;4881341;29;20447;-75
2021/12/26 12:48:20;;;;;;;4.87;1.30;;;9.40;89.80;;;;;;4881682;29;20029;-74
2021/12/26 12:50:46;;;;;;;3.37;1.60;;;9.40;88.70;;;;;;4881831;29;20040;-75